createdAt,value
2022-08-10T00:00:59.627Z,37.47
2022-08-10T00:03:29.284Z,42.47
2022-08-10T00:05:59.209Z,50.55
2022-08-10T00:08:30.129Z,51.33
2022-08-10T00:10:59.964Z,43.78
2022-08-10T00:13:31.567Z,45.72
2022-08-10T00:16:01.401Z,49.25
2022-08-10T00:18:35.277Z,44.42
2022-08-10T00:21:08.252Z,41.83
2022-08-10T00:23:39.636Z,46.30
2022-08-10T00:26:09.707Z,45.53
2022-08-10T00:28:40.507Z,42.05
2022-08-10T00:31:10.185Z,40.50
2022-08-10T00:33:39.987Z,42.05
2022-08-10T00:36:09.687Z,40.35
2022-08-10T00:38:39.253Z,33.03
2022-08-10T00:41:08.985Z,39.00
2022-08-10T00:43:38.619Z,45.53
2022-08-10T00:46:08.036Z,37.70
2022-08-10T00:48:37.729Z,38.17
2022-08-10T00:51:07.557Z,33.42
2022-08-10T00:53:37.499Z,39.40
2022-08-10T00:56:35.060Z,34.13
2022-08-10T00:58:57.187Z,34.70
2022-08-10T01:02:10.133Z,43.80
2022-08-10T01:04:39.727Z,37.80
2022-08-10T01:07:36.213Z,48.63
2022-08-10T01:10:20.727Z,39.00
2022-08-10T01:12:56.771Z,21.90
2022-08-10T01:15:38.580Z,24.10
2022-08-10T01:18:37.815Z,26.33
2022-08-10T01:21:25.998Z,26.58
2022-08-10T01:24:39.608Z,36.05
2022-08-10T01:27:41.828Z,26.63
2022-08-10T01:30:16.946Z,26.03
2022-08-10T01:33:12.579Z,30.80
2022-08-10T01:35:51.298Z,29.30
2022-08-10T01:38:40.404Z,23.85
2022-08-10T01:41:14.161Z,24.38
2022-08-10T01:43:47.944Z,25.73
2022-08-10T01:46:18.822Z,22.23
2022-08-10T01:48:55.060Z,20.13
2022-08-10T01:51:40.806Z,22.73
2022-08-10T01:54:14.462Z,25.80
2022-08-10T01:56:50.337Z,33.60
2022-08-10T01:59:35.056Z,33.17
2022-08-10T02:02:08.203Z,31.20
2022-08-10T02:04:42.964Z,28.85
2022-08-10T02:07:18.354Z,35.38
2022-08-10T02:09:53.004Z,27.90
2022-08-10T02:12:27.763Z,35.38
2022-08-10T02:15:07.686Z,32.95
2022-08-10T02:17:57.600Z,22.20
2022-08-10T02:20:39.519Z,27.08
2022-08-10T02:23:19.476Z,30.83
2022-08-10T02:25:51.056Z,31.80
2022-08-10T02:28:30.422Z,39.22
2022-08-10T02:31:10.394Z,32.38
2022-08-10T02:33:57.463Z,46.10
2022-08-10T02:36:33.320Z,37.22
2022-08-10T02:39:06.285Z,43.80
2022-08-10T02:45:02.061Z,34.35
2022-08-10T02:45:23.047Z,40.33
2022-08-10T02:48:01.865Z,35.40
2022-08-10T02:50:36.507Z,21.73
2022-08-10T02:53:55.318Z,30.77
2022-08-10T02:56:28.023Z,24.85
2022-08-10T02:59:02.372Z,24.02
2022-08-10T03:01:36.395Z,38.63
2022-08-10T03:04:16.514Z,50.95
2022-08-10T03:06:53.883Z,36.25
2022-08-10T03:09:25.703Z,30.88
2022-08-10T03:12:37.699Z,27.23
2022-08-10T03:14:47.757Z,24.77
2022-08-10T03:17:18.677Z,29.27
2022-08-10T03:20:34.943Z,40.72
2022-08-10T03:22:39.480Z,40.35
2022-08-10T03:25:13.717Z,33.83
2022-08-10T03:27:45.386Z,32.30
2022-08-10T03:30:28.522Z,23.45
2022-08-10T03:33:06.603Z,40.00
2022-08-10T03:35:36.492Z,30.38
2022-08-10T03:38:06.967Z,27.63
2022-08-10T03:40:46.424Z,28.58
2022-08-10T03:43:22.316Z,26.20
2022-08-10T03:45:56.712Z,30.70
2022-08-10T03:48:42.418Z,22.40
2022-08-10T03:51:21.643Z,24.67
2022-08-10T03:54:05.093Z,25.10
2022-08-10T03:56:38.516Z,34.13
2022-08-10T03:59:10.829Z,21.02
2022-08-10T04:02:45.056Z,20.40
2022-08-10T04:04:31.818Z,25.95
2022-08-10T04:07:02.896Z,29.02
2022-08-10T04:09:53.117Z,20.48
2022-08-10T04:12:26.829Z,24.80
2022-08-10T04:14:56.778Z,22.70
2022-08-10T04:18:03.541Z,21.45
2022-08-10T04:20:37.914Z,24.08
2022-08-10T04:23:13.724Z,21.63
2022-08-10T04:25:43.793Z,26.33
2022-08-10T04:28:14.370Z,59.22
2022-08-10T04:30:46.378Z,30.75
2022-08-10T04:33:19.504Z,26.70
2022-08-10T04:35:51.183Z,24.75
2022-08-10T04:38:22.699Z,33.72
2022-08-10T04:40:54.125Z,24.70
2022-08-10T04:43:24.228Z,34.58
2022-08-10T04:45:55.037Z,27.20
2022-08-10T04:48:41.044Z,27.73
2022-08-10T04:51:18.712Z,27.73
2022-08-10T04:54:15.964Z,33.63
2022-08-10T04:56:45.105Z,33.38
2022-08-10T04:59:14.319Z,43.20
2022-08-10T05:02:30.530Z,50.55
2022-08-10T05:04:38.988Z,48.85
2022-08-10T05:07:16.289Z,40.35
2022-08-10T05:10:02.311Z,35.83
2022-08-10T05:12:37.691Z,55.17
2022-08-10T05:15:22.810Z,53.28
2022-08-10T05:18:04.643Z,37.70
2022-08-10T05:20:44.539Z,35.42
2022-08-10T05:23:17.739Z,54.08
2022-08-10T05:25:47.854Z,51.10
2022-08-10T05:28:17.682Z,33.33
2022-08-10T05:30:47.584Z,34.67
2022-08-10T05:33:17.906Z,25.40
2022-08-10T05:35:55.452Z,34.35
2022-08-10T05:38:30.984Z,112.45
2022-08-10T05:41:02.392Z,34.38
2022-08-10T05:43:31.949Z,35.13
2022-08-10T05:46:17.571Z,65.70
2022-08-10T05:48:59.061Z,47.50
2022-08-10T05:51:32.090Z,45.58
2022-08-10T05:54:06.566Z,40.08
2022-08-10T05:56:54.799Z,37.15
2022-08-10T06:00:33.870Z,50.60
2022-08-10T06:02:35.337Z,34.10
2022-08-10T06:05:38.284Z,37.97
2022-08-10T06:08:17.621Z,51.47
2022-08-10T06:12:23.857Z,41.83
2022-08-10T06:14:12.434Z,38.65
2022-08-10T06:16:46.004Z,46.83
2022-08-10T06:22:00.470Z,43.83
2022-08-10T06:24:57.277Z,46.38
2022-08-10T06:27:34.320Z,40.95
2022-08-10T06:30:04.871Z,37.33
2022-08-10T06:32:52.753Z,40.13
2022-08-10T06:38:11.575Z,45.55
2022-08-10T06:40:45.138Z,41.53
2022-08-10T06:43:18.663Z,39.65
2022-08-10T06:46:08.038Z,39.47
2022-08-10T06:48:47.719Z,39.55
2022-08-10T06:51:24.782Z,46.55
2022-08-10T06:54:00.687Z,69.47
2022-08-10T06:56:37.803Z,44.35
2022-08-10T06:59:28.254Z,36.97
2022-08-10T07:02:10.977Z,32.70
2022-08-10T07:04:48.134Z,32.22
2022-08-10T07:07:20.981Z,38.35
2022-08-10T07:09:52.263Z,29.80
2022-08-10T07:12:23.913Z,41.85
2022-08-10T07:14:55.125Z,24.92
2022-08-10T07:17:28.260Z,37.88
2022-08-10T07:20:00.907Z,24.83
2022-08-10T07:23:11.067Z,25.77
2022-08-10T07:25:26.176Z,30.20
2022-08-10T07:27:59.303Z,104.80
2022-08-10T07:30:34.324Z,35.85
2022-08-10T07:33:06.047Z,30.65
2022-08-10T07:35:42.207Z,42.28
2022-08-10T07:38:19.927Z,33.30
2022-08-10T07:40:52.273Z,40.83
2022-08-10T07:43:25.698Z,36.78
2022-08-10T07:45:57.163Z,122.40
2022-08-10T07:48:33.766Z,30.73
2022-08-10T07:51:04.795Z,34.80
2022-08-10T07:53:40.332Z,35.50
2022-08-10T07:56:26.355Z,21.23
2022-08-10T07:59:11.197Z,26.52
2022-08-10T08:01:49.496Z,26.65
2022-08-10T08:04:23.037Z,27.92
2022-08-10T08:06:54.855Z,45.15
2022-08-10T08:11:55.785Z,35.35
2022-08-10T08:14:27.524Z,30.50
2022-08-10T08:16:57.898Z,26.00
2022-08-10T08:19:35.519Z,28.55
2022-08-10T08:24:08.802Z,26.02
2022-08-10T08:25:01.758Z,23.25
2022-08-10T08:27:31.583Z,70.22
2022-08-10T08:30:02.907Z,28.65
2022-08-10T08:32:36.489Z,30.65
2022-08-10T08:35:13.088Z,63.22
2022-08-10T08:38:30.453Z,43.50
2022-08-10T08:40:37.746Z,35.70
2022-08-10T08:43:16.377Z,39.20
2022-08-10T08:46:10.671Z,38.95
2022-08-10T08:49:09.621Z,35.28
2022-08-10T08:52:07.420Z,40.20
2022-08-10T08:55:04.195Z,35.08
2022-08-10T08:58:17.595Z,44.45
2022-08-10T09:01:22.122Z,39.08
2022-08-10T09:04:19.912Z,44.17
2022-08-10T09:08:02.294Z,48.45
2022-08-10T09:11:10.040Z,40.85
2022-08-10T09:13:50.128Z,41.00
2022-08-10T09:16:39.711Z,44.22
2022-08-10T09:19:42.794Z,34.80
2022-08-10T09:22:32.840Z,37.95
2022-08-10T09:25:24.062Z,43.95
2022-08-10T09:28:02.550Z,39.60
2022-08-10T09:31:10.749Z,37.75
2022-08-10T09:36:23.358Z,50.95
2022-08-10T09:37:58.674Z,34.23
2022-08-10T09:41:01.019Z,43.70
2022-08-10T09:43:53.499Z,32.63
2022-08-10T09:46:34.618Z,30.13
2022-08-10T09:49:57.803Z,49.97
2022-08-10T09:52:58.712Z,37.08
2022-08-10T09:56:17.985Z,35.92
2022-08-10T09:58:46.972Z,32.85
2022-08-10T10:02:03.835Z,48.45
2022-08-10T10:04:50.143Z,43.08
2022-08-10T10:07:32.751Z,37.83
2022-08-10T10:10:10.186Z,28.25
2022-08-10T10:13:04.025Z,24.52
2022-08-10T10:15:52.116Z,52.33
2022-08-10T10:18:48.939Z,31.33
2022-08-10T10:21:54.409Z,29.77
2022-08-10T10:24:30.512Z,37.80
2022-08-10T10:27:16.846Z,32.17
2022-08-10T10:30:06.748Z,39.22
2022-08-10T10:32:58.128Z,36.90
2022-08-10T10:35:40.002Z,26.55
2022-08-10T10:38:13.221Z,35.53
2022-08-10T10:41:02.653Z,27.83
2022-08-10T10:43:58.821Z,27.38
2022-08-10T10:46:46.427Z,36.67
2022-08-10T10:49:35.014Z,44.03
2022-08-10T10:52:06.698Z,39.25
2022-08-10T10:55:06.215Z,39.88
2022-08-10T10:58:07.812Z,52.08
2022-08-10T11:00:58.212Z,24.15
2022-08-10T11:03:45.459Z,30.92
2022-08-10T11:06:57.999Z,31.63
2022-08-10T11:10:03.401Z,35.55
2022-08-10T11:12:46.819Z,46.10
2022-08-10T11:15:50.370Z,30.92
2022-08-10T11:18:34.807Z,28.63
2022-08-10T11:21:21.709Z,28.98
2022-08-10T11:24:47.213Z,69.05
2022-08-10T11:27:50.005Z,38.67
2022-08-10T11:30:47.180Z,45.20
2022-08-10T11:34:04.209Z,32.72
2022-08-10T11:36:46.552Z,33.73
2022-08-10T11:39:31.731Z,31.50
2022-08-10T11:42:19.122Z,30.38
2022-08-10T11:45:19.221Z,39.35
2022-08-10T11:48:13.676Z,57.38
2022-08-10T11:51:14.056Z,37.83
2022-08-10T11:54:05.899Z,44.33
2022-08-10T11:56:49.323Z,94.97
2022-08-10T11:59:39.682Z,61.40
2022-08-10T12:02:11.691Z,53.25
2022-08-10T12:10:07.017Z,48.13
2022-08-10T12:10:13.374Z,41.50
2022-08-10T12:12:57.100Z,39.58
2022-08-10T12:15:44.837Z,47.28
2022-08-10T12:18:49.243Z,39.35
2022-08-10T12:21:28.954Z,42.20
2022-08-10T12:24:14.857Z,75.68
2022-08-10T12:27:04.567Z,36.95
2022-08-10T12:29:53.245Z,44.15
2022-08-10T12:32:46.663Z,48.00
2022-08-10T12:36:18.406Z,48.70
2022-08-10T12:39:16.662Z,170.50
2022-08-10T12:42:37.036Z,199.57
2022-08-10T12:45:15.125Z,75.35
2022-08-10T12:48:31.348Z,58.90
2022-08-10T12:51:04.027Z,154.98
2022-08-10T12:53:53.475Z,51.50
2022-08-10T12:56:29.820Z,63.15
2022-08-10T12:59:01.952Z,46.13
2022-08-10T13:02:07.711Z,48.53
2022-08-10T13:04:33.033Z,52.40
2022-08-10T13:07:05.965Z,38.13
2022-08-10T13:09:55.657Z,41.92
2022-08-10T13:12:37.152Z,53.20
2022-08-10T13:15:45.867Z,55.60
2022-08-10T13:18:18.733Z,60.88
2022-08-10T13:20:55.739Z,52.00
2022-08-10T13:23:31.487Z,57.17
2022-08-10T13:26:05.227Z,36.83
2022-08-10T13:28:50.676Z,59.50
2022-08-10T13:32:03.433Z,61.60
2022-08-10T13:34:42.184Z,44.90
2022-08-10T13:37:18.571Z,58.10
2022-08-10T13:39:59.163Z,52.92
2022-08-10T13:42:37.973Z,45.78
2022-08-10T13:45:26.250Z,75.20
2022-08-10T13:48:13.959Z,82.93
2022-08-10T13:50:45.310Z,43.03
2022-08-10T13:53:34.974Z,33.57
2022-08-10T13:56:06.395Z,29.30
2022-08-10T14:01:16.983Z,33.35
2022-08-10T14:03:50.205Z,33.38
2022-08-10T14:06:29.650Z,26.75
2022-08-10T14:09:11.527Z,27.58
2022-08-10T14:11:43.541Z,27.77
2022-08-10T14:14:20.290Z,28.50
2022-08-10T14:16:51.615Z,24.77
2022-08-10T14:19:28.188Z,28.23
2022-08-10T14:21:59.324Z,32.17
2022-08-10T14:24:32.704Z,23.77
2022-08-10T14:27:09.358Z,28.25
2022-08-10T14:29:45.774Z,25.25
2022-08-10T14:32:19.185Z,27.38
2022-08-10T14:36:16.342Z,30.40
2022-08-10T14:38:02.662Z,29.20
2022-08-10T14:40:43.007Z,28.05
2022-08-10T14:43:28.314Z,33.25
2022-08-10T14:46:04.075Z,32.88
2022-08-10T14:48:41.753Z,38.78
2022-08-10T14:51:15.766Z,33.38
2022-08-10T14:53:51.929Z,42.72
2022-08-10T14:56:34.919Z,33.58
2022-08-10T14:59:09.532Z,30.65
2022-08-10T15:02:39.014Z,28.15
2022-08-10T15:04:37.493Z,35.47
2022-08-10T15:07:30.727Z,31.42
2022-08-10T15:10:04.110Z,31.05
2022-08-10T15:12:38.419Z,30.45
2022-08-10T15:15:16.465Z,28.50
2022-08-10T15:17:52.801Z,31.02
2022-08-10T15:20:28.686Z,29.75
2022-08-10T15:23:05.638Z,29.23
2022-08-10T15:25:41.375Z,34.28
2022-08-10T15:28:37.268Z,37.08
2022-08-10T15:31:22.736Z,31.38
2022-08-10T15:34:12.888Z,24.98
2022-08-10T15:37:40.670Z,31.35
2022-08-10T15:40:24.544Z,93.00
2022-08-10T15:43:25.283Z,72.32
2022-08-10T15:46:15.650Z,58.33
2022-08-10T15:49:03.041Z,52.15
2022-08-10T15:52:01.740Z,64.38
2022-08-10T15:54:41.172Z,72.05
2022-08-10T15:57:14.747Z,47.45
2022-08-10T15:59:55.328Z,50.33
2022-08-10T16:02:31.344Z,47.08
2022-08-10T16:05:19.776Z,43.38
2022-08-10T16:08:13.678Z,45.33
2022-08-10T16:10:55.534Z,40.30
2022-08-10T16:13:58.970Z,33.00
2022-08-10T16:16:23.938Z,30.27
2022-08-10T16:18:55.317Z,73.78
2022-08-10T16:21:26.907Z,61.80
2022-08-10T16:24:15.143Z,54.20
2022-08-10T16:26:52.071Z,42.92
2022-08-10T16:29:29.546Z,35.80
2022-08-10T16:32:03.341Z,33.67
2022-08-10T16:34:36.770Z,39.10
2022-08-10T16:37:11.239Z,32.90
2022-08-10T16:39:59.881Z,36.83
2022-08-10T16:42:36.048Z,33.20
2022-08-10T16:45:31.044Z,31.23
2022-08-10T16:48:02.836Z,29.45
2022-08-10T16:50:42.801Z,31.13
2022-08-10T16:53:19.463Z,30.40
2022-08-10T16:55:55.387Z,27.50
2022-08-10T16:58:37.408Z,35.10
2022-08-10T17:01:18.792Z,28.75
2022-08-10T17:04:07.229Z,35.42
2022-08-10T17:06:56.479Z,29.17
2022-08-10T17:09:33.509Z,31.85
2022-08-10T17:12:13.182Z,26.92
2022-08-10T17:14:44.617Z,29.85
2022-08-10T17:17:24.072Z,26.00
2022-08-10T17:20:30.219Z,28.40
2022-08-10T17:22:54.946Z,31.83
2022-08-10T17:25:46.164Z,37.95
2022-08-10T17:28:34.659Z,30.58
2022-08-10T17:31:53.221Z,36.72
2022-08-10T17:34:22.804Z,34.30
2022-08-10T17:36:59.170Z,30.15
2022-08-10T17:39:41.245Z,27.42
2022-08-10T17:42:12.514Z,38.65
2022-08-10T17:44:46.632Z,29.58
2022-08-10T17:47:18.310Z,33.58
2022-08-10T17:49:48.669Z,32.30
2022-08-10T17:52:24.666Z,37.47
2022-08-10T17:55:08.944Z,31.33
2022-08-10T17:57:41.172Z,31.65
2022-08-10T18:02:49.411Z,34.70
2022-08-10T18:05:20.403Z,29.17
2022-08-10T18:07:54.865Z,23.25
2022-08-10T18:10:25.183Z,30.63
2022-08-10T18:12:59.374Z,39.67
2022-08-10T18:15:33.788Z,30.83
2022-08-10T18:18:05.074Z,28.33
2022-08-10T18:20:40.646Z,23.90
2022-08-10T18:23:12.495Z,27.75
2022-08-10T18:25:45.436Z,24.45
2022-08-10T18:28:22.396Z,29.80
2022-08-10T18:30:57.236Z,28.88
2022-08-10T18:33:33.492Z,28.80
2022-08-10T18:36:09.455Z,25.40
2022-08-10T18:38:41.714Z,29.05
2022-08-10T18:41:17.580Z,26.83
2022-08-10T18:44:09.921Z,23.25
2022-08-10T18:46:47.531Z,28.33
2022-08-10T18:49:42.921Z,28.65
2022-08-10T18:52:16.619Z,27.90
2022-08-10T18:54:55.459Z,30.08
2022-08-10T18:57:47.327Z,33.28
2022-08-10T19:00:20.746Z,25.15
2022-08-10T19:03:29.635Z,29.15
2022-08-10T19:06:14.117Z,27.60
2022-08-10T19:09:09.657Z,26.65
2022-08-10T19:12:06.865Z,29.48
2022-08-10T19:15:23.772Z,29.47
2022-08-10T19:18:03.936Z,27.42
2022-08-10T19:20:55.630Z,33.00
2022-08-10T19:23:40.963Z,27.67
2022-08-10T19:26:44.622Z,33.75
2022-08-10T19:30:08.712Z,31.85
2022-08-10T19:32:33.720Z,29.25
2022-08-10T19:35:10.451Z,30.38
2022-08-10T19:38:00.614Z,29.35
2022-08-10T19:41:12.528Z,32.28
2022-08-10T19:44:00.807Z,31.33
2022-08-10T19:46:58.220Z,29.40
2022-08-10T19:49:45.428Z,26.80
2022-08-10T19:52:42.527Z,36.72
2022-08-10T19:55:43.679Z,38.13
2022-08-10T19:59:00.439Z,29.23
2022-08-10T20:01:55.269Z,32.90
2022-08-10T20:07:31.904Z,29.88
2022-08-10T20:10:10.334Z,35.78
2022-08-10T20:13:04.523Z,30.63
2022-08-10T20:15:41.858Z,31.50
2022-08-10T20:18:25.433Z,30.98
2022-08-10T20:21:27.213Z,32.97
2022-08-10T20:24:12.180Z,36.25
2022-08-10T20:27:08.894Z,32.55
2022-08-10T20:29:57.821Z,32.30
2022-08-10T20:32:36.273Z,29.33
2022-08-10T20:35:16.764Z,33.63
2022-08-10T20:38:15.074Z,29.95
2022-08-10T20:41:17.033Z,31.77
2022-08-10T20:43:58.931Z,28.73
2022-08-10T20:47:07.636Z,29.95
2022-08-10T20:49:48.390Z,33.42
2022-08-10T20:52:18.319Z,31.67
2022-08-10T20:54:59.585Z,41.65
2022-08-10T20:57:54.614Z,29.45
2022-08-10T21:00:53.179Z,34.55
2022-08-10T21:03:33.222Z,32.60
2022-08-10T21:06:41.778Z,38.88
2022-08-10T21:09:46.845Z,38.22
2022-08-10T21:12:16.711Z,35.25
2022-08-10T21:14:54.683Z,33.90
2022-08-10T21:17:42.269Z,38.47
2022-08-10T21:20:33.581Z,35.13
2022-08-10T21:23:08.418Z,32.15
2022-08-10T21:26:11.419Z,31.58
2022-08-10T21:28:59.895Z,34.40
2022-08-10T21:31:53.258Z,41.20
2022-08-10T21:35:02.006Z,42.33
2022-08-10T21:37:39.981Z,34.28
2022-08-10T21:40:39.131Z,41.63
2022-08-10T21:44:01.575Z,32.85
2022-08-10T21:47:31.094Z,30.33
2022-08-10T21:50:28.985Z,32.90
2022-08-10T21:53:43.748Z,36.72
2022-08-10T21:57:07.828Z,38.97
2022-08-10T22:03:24.519Z,48.85
2022-08-10T22:06:14.544Z,55.67
2022-08-10T22:09:16.221Z,66.32
2022-08-10T22:12:24.679Z,68.35
2022-08-10T22:16:03.061Z,79.65
2022-08-10T22:18:58.714Z,95.93
2022-08-10T22:21:58.699Z,107.45
2022-08-10T22:25:20.006Z,107.80
2022-08-10T22:28:17.930Z,115.85
2022-08-10T22:31:40.029Z,121.25
2022-08-10T22:34:46.484Z,117.63
2022-08-10T22:38:15.854Z,109.38
2022-08-10T22:41:06.514Z,101.72
2022-08-10T22:43:56.083Z,96.57
2022-08-10T22:46:52.263Z,80.60
2022-08-10T22:49:26.315Z,51.88
2022-08-10T22:52:04.893Z,54.38
2022-08-10T22:55:15.720Z,52.45
2022-08-10T22:58:05.637Z,44.67
2022-08-10T23:00:36.271Z,52.70
2022-08-10T23:03:23.202Z,43.88
2022-08-10T23:06:18.673Z,40.33
2022-08-10T23:08:58.389Z,37.17
2022-08-10T23:11:35.324Z,43.45
2022-08-10T23:14:08.621Z,39.15
2022-08-10T23:17:09.674Z,40.25
2022-08-10T23:19:48.885Z,45.05
2022-08-10T23:22:21.002Z,44.60
2022-08-10T23:24:56.869Z,39.25
2022-08-10T23:27:39.287Z,40.55
2022-08-10T23:30:19.107Z,37.65
2022-08-10T23:32:53.338Z,39.65
2022-08-10T23:36:29.447Z,38.22
2022-08-10T23:38:22.684Z,39.67
2022-08-10T23:40:54.999Z,46.08
2022-08-10T23:46:39.517Z,41.25
2022-08-10T23:49:13.414Z,42.65
2022-08-10T23:51:55.697Z,40.40
2022-08-10T23:54:27.965Z,38.72
2022-08-10T23:57:01.157Z,40.10
2022-08-10T23:59:33.572Z,42.90
